sensor_id;sensor_type;location;lat;lon;timestamp;P1;durP1;ratioP1;P2;durP2;ratioP2
47287;SDS011;33020;53.008;13.558;2023-07-28T00:00:14;10.30;;;7.43;;
47287;SDS011;33020;53.008;13.558;2023-07-28T00:02:48;9.80;;;7.30;;
47287;SDS011;33020;53.008;13.558;2023-07-28T00:05:23;9.13;;;6.82;;
47287;SDS011;33020;53.008;13.558;2023-07-28T00:07:55;8.25;;;6.97;;
47287;SDS011;33020;53.008;13.558;2023-07-28T00:10:26;7.30;;;6.30;;
47287;SDS011;33020;53.008;13.558;2023-07-28T00:13:03;8.30;;;7.40;;
47287;SDS011;33020;53.008;13.558;2023-07-28T00:15:40;9.25;;;7.30;;
47287;SDS011;33020;53.008;13.558;2023-07-28T00:18:15;9.35;;;7.63;;
47287;SDS011;33020;53.008;13.558;2023-07-28T00:20:50;9.55;;;8.13;;
47287;SDS011;33020;53.008;13.558;2023-07-28T00:23:25;8.52;;;6.78;;
47287;SDS011;33020;53.008;13.558;2023-07-28T00:26:04;9.02;;;7.25;;
47287;SDS011;33020;53.008;13.558;2023-07-28T00:28:43;8.55;;;7.35;;
47287;SDS011;33020;53.008;13.558;2023-07-28T00:31:18;9.55;;;7.43;;
47287;SDS011;33020;53.008;13.558;2023-07-28T00:33:55;9.18;;;7.70;;
47287;SDS011;33020;53.008;13.558;2023-07-28T00:36:31;7.93;;;7.13;;
47287;SDS011;33020;53.008;13.558;2023-07-28T00:39:05;10.90;;;9.25;;
47287;SDS011;33020;53.008;13.558;2023-07-28T00:41:38;9.27;;;8.30;;
47287;SDS011;33020;53.008;13.558;2023-07-28T00:44:09;9.63;;;7.97;;
47287;SDS011;33020;53.008;13.558;2023-07-28T00:46:48;8.45;;;6.50;;
47287;SDS011;33020;53.008;13.558;2023-07-28T00:49:23;9.95;;;8.43;;
47287;SDS011;33020;53.008;13.558;2023-07-28T00:51:58;8.57;;;7.40;;
47287;SDS011;33020;53.008;13.558;2023-07-28T00:54:29;8.30;;;7.50;;
47287;SDS011;33020;53.008;13.558;2023-07-28T00:57:01;8.40;;;7.38;;
47287;SDS011;33020;53.008;13.558;2023-07-28T00:59:38;7.32;;;6.13;;
47287;SDS011;33020;53.008;13.558;2023-07-28T01:02:13;7.53;;;6.70;;
47287;SDS011;33020;53.008;13.558;2023-07-28T01:04:50;8.88;;;6.65;;
47287;SDS011;33020;53.008;13.558;2023-07-28T01:07:32;9.15;;;7.28;;
47287;SDS011;33020;53.008;13.558;2023-07-28T01:10:14;9.45;;;6.03;;
47287;SDS011;33020;53.008;13.558;2023-07-28T01:12:45;6.95;;;6.25;;
47287;SDS011;33020;53.008;13.558;2023-07-28T01:15:23;7.70;;;6.88;;
47287;SDS011;33020;53.008;13.558;2023-07-28T01:18:00;9.35;;;6.43;;
47287;SDS011;33020;53.008;13.558;2023-07-28T01:20:37;8.85;;;5.97;;
47287;SDS011;33020;53.008;13.558;2023-07-28T01:23:20;7.55;;;6.28;;
47287;SDS011;33020;53.008;13.558;2023-07-28T01:26:11;7.63;;;5.85;;
47287;SDS011;33020;53.008;13.558;2023-07-28T01:28:46;7.72;;;6.93;;
47287;SDS011;33020;53.008;13.558;2023-07-28T01:31:21;6.72;;;6.00;;
47287;SDS011;33020;53.008;13.558;2023-07-28T01:33:57;6.70;;;6.00;;
47287;SDS011;33020;53.008;13.558;2023-07-28T01:36:34;8.07;;;6.60;;
47287;SDS011;33020;53.008;13.558;2023-07-28T01:39:09;6.45;;;5.72;;
47287;SDS011;33020;53.008;13.558;2023-07-28T01:41:46;5.95;;;5.35;;
47287;SDS011;33020;53.008;13.558;2023-07-28T01:44:23;6.82;;;5.18;;
47287;SDS011;33020;53.008;13.558;2023-07-28T01:46:58;5.85;;;5.00;;
47287;SDS011;33020;53.008;13.558;2023-07-28T01:49:34;5.65;;;5.07;;
47287;SDS011;33020;53.008;13.558;2023-07-28T01:52:12;4.57;;;4.05;;
47287;SDS011;33020;53.008;13.558;2023-07-28T01:54:49;5.20;;;4.65;;
47287;SDS011;33020;53.008;13.558;2023-07-28T01:57:26;4.53;;;3.92;;
47287;SDS011;33020;53.008;13.558;2023-07-28T02:00:03;5.07;;;4.07;;
47287;SDS011;33020;53.008;13.558;2023-07-28T02:02:38;4.88;;;4.38;;
47287;SDS011;33020;53.008;13.558;2023-07-28T02:05:16;4.35;;;3.65;;
47287;SDS011;33020;53.008;13.558;2023-07-28T02:07:51;4.88;;;4.15;;
47287;SDS011;33020;53.008;13.558;2023-07-28T02:10:30;5.18;;;4.35;;
47287;SDS011;33020;53.008;13.558;2023-07-28T02:13:04;4.45;;;3.92;;
47287;SDS011;33020;53.008;13.558;2023-07-28T02:15:41;5.53;;;4.18;;
47287;SDS011;33020;53.008;13.558;2023-07-28T02:18:16;4.03;;;3.33;;
47287;SDS011;33020;53.008;13.558;2023-07-28T02:20:50;4.95;;;4.00;;
47287;SDS011;33020;53.008;13.558;2023-07-28T02:23:27;5.38;;;4.75;;
47287;SDS011;33020;53.008;13.558;2023-07-28T02:26:03;4.10;;;3.70;;
47287;SDS011;33020;53.008;13.558;2023-07-28T02:28:45;4.40;;;3.90;;
47287;SDS011;33020;53.008;13.558;2023-07-28T02:31:20;4.78;;;4.22;;
47287;SDS011;33020;53.008;13.558;2023-07-28T02:33:55;4.38;;;3.40;;
47287;SDS011;33020;53.008;13.558;2023-07-28T02:36:35;4.28;;;3.78;;
47287;SDS011;33020;53.008;13.558;2023-07-28T02:39:17;4.95;;;4.45;;
47287;SDS011;33020;53.008;13.558;2023-07-28T02:41:52;8.00;;;5.50;;
47287;SDS011;33020;53.008;13.558;2023-07-28T02:44:26;4.38;;;3.97;;
47287;SDS011;33020;53.008;13.558;2023-07-28T02:46:57;3.83;;;3.42;;
47287;SDS011;33020;53.008;13.558;2023-07-28T02:49:30;3.13;;;2.83;;
47287;SDS011;33020;53.008;13.558;2023-07-28T02:52:05;4.15;;;3.15;;
47287;SDS011;33020;53.008;13.558;2023-07-28T02:54:39;5.75;;;3.42;;
47287;SDS011;33020;53.008;13.558;2023-07-28T02:57:15;3.75;;;3.30;;
47287;SDS011;33020;53.008;13.558;2023-07-28T02:59:52;3.67;;;3.20;;
47287;SDS011;33020;53.008;13.558;2023-07-28T03:02:27;4.10;;;3.60;;
47287;SDS011;33020;53.008;13.558;2023-07-28T03:04:58;3.80;;;3.28;;
47287;SDS011;33020;53.008;13.558;2023-07-28T03:07:32;4.90;;;3.00;;
47287;SDS011;33020;53.008;13.558;2023-07-28T03:10:00;4.30;;;3.90;;
47287;SDS011;33020;53.008;13.558;2023-07-28T03:12:31;6.53;;;4.35;;
47287;SDS011;33020;53.008;13.558;2023-07-28T03:15:01;3.65;;;3.03;;
47287;SDS011;33020;53.008;13.558;2023-07-28T03:17:38;4.25;;;3.00;;
47287;SDS011;33020;53.008;13.558;2023-07-28T03:20:14;3.53;;;3.22;;
47287;SDS011;33020;53.008;13.558;2023-07-28T03:22:51;3.42;;;2.90;;
47287;SDS011;33020;53.008;13.558;2023-07-28T03:25:28;3.40;;;2.78;;
47287;SDS011;33020;53.008;13.558;2023-07-28T03:28:01;2.85;;;2.55;;
47287;SDS011;33020;53.008;13.558;2023-07-28T03:30:36;3.22;;;2.70;;
47287;SDS011;33020;53.008;13.558;2023-07-28T03:33:11;3.05;;;2.75;;
47287;SDS011;33020;53.008;13.558;2023-07-28T03:35:39;3.42;;;2.55;;
47287;SDS011;33020;53.008;13.558;2023-07-28T03:38:08;3.30;;;2.75;;
47287;SDS011;33020;53.008;13.558;2023-07-28T03:40:35;4.13;;;2.55;;
47287;SDS011;33020;53.008;13.558;2023-07-28T03:43:03;3.03;;;2.28;;
47287;SDS011;33020;53.008;13.558;2023-07-28T03:45:34;2.83;;;2.30;;
47287;SDS011;33020;53.008;13.558;2023-07-28T03:48:08;2.30;;;1.95;;
47287;SDS011;33020;53.008;13.558;2023-07-28T03:50:36;2.70;;;2.25;;
47287;SDS011;33020;53.008;13.558;2023-07-28T03:53:04;2.78;;;2.10;;
47287;SDS011;33020;53.008;13.558;2023-07-28T03:55:32;2.65;;;2.20;;
47287;SDS011;33020;53.008;13.558;2023-07-28T03:58:01;3.38;;;2.30;;
47287;SDS011;33020;53.008;13.558;2023-07-28T04:00:34;2.80;;;1.98;;
47287;SDS011;33020;53.008;13.558;2023-07-28T04:03:02;3.00;;;2.70;;
47287;SDS011;33020;53.008;13.558;2023-07-28T04:05:30;2.35;;;1.95;;
47287;SDS011;33020;53.008;13.558;2023-07-28T04:07:57;3.58;;;2.08;;
47287;SDS011;33020;53.008;13.558;2023-07-28T04:10:26;3.28;;;2.30;;
47287;SDS011;33020;53.008;13.558;2023-07-28T04:12:58;3.47;;;2.65;;
47287;SDS011;33020;53.008;13.558;2023-07-28T04:15:26;2.63;;;2.30;;
47287;SDS011;33020;53.008;13.558;2023-07-28T04:17:54;3.42;;;2.40;;
47287;SDS011;33020;53.008;13.558;2023-07-28T04:20:22;2.70;;;2.13;;
47287;SDS011;33020;53.008;13.558;2023-07-28T04:22:51;2.83;;;2.28;;
47287;SDS011;33020;53.008;13.558;2023-07-28T04:25:24;3.47;;;2.38;;
47287;SDS011;33020;53.008;13.558;2023-07-28T04:27:55;2.83;;;1.80;;
47287;SDS011;33020;53.008;13.558;2023-07-28T04:30:24;2.20;;;1.80;;
47287;SDS011;33020;53.008;13.558;2023-07-28T04:32:53;2.95;;;2.20;;
47287;SDS011;33020;53.008;13.558;2023-07-28T04:35:26;2.10;;;1.67;;
47287;SDS011;33020;53.008;13.558;2023-07-28T04:37:54;2.80;;;1.92;;
47287;SDS011;33020;53.008;13.558;2023-07-28T04:40:21;2.33;;;1.45;;
47287;SDS011;33020;53.008;13.558;2023-07-28T04:42:49;2.05;;;1.70;;
47287;SDS011;33020;53.008;13.558;2023-07-28T04:45:22;1.80;;;1.23;;
47287;SDS011;33020;53.008;13.558;2023-07-28T04:47:49;1.75;;;1.38;;
47287;SDS011;33020;53.008;13.558;2023-07-28T04:50:16;1.98;;;1.35;;
47287;SDS011;33020;53.008;13.558;2023-07-28T04:52:48;1.50;;;1.40;;
47287;SDS011;33020;53.008;13.558;2023-07-28T04:55:15;2.10;;;1.45;;
47287;SDS011;33020;53.008;13.558;2023-07-28T04:57:43;3.20;;;1.70;;
47287;SDS011;33020;53.008;13.558;2023-07-28T05:00:18;2.13;;;1.63;;
47287;SDS011;33020;53.008;13.558;2023-07-28T05:02:45;2.40;;;1.95;;
47287;SDS011;33020;53.008;13.558;2023-07-28T05:05:12;3.15;;;2.00;;
47287;SDS011;33020;53.008;13.558;2023-07-28T05:07:38;3.78;;;2.15;;
47287;SDS011;33020;53.008;13.558;2023-07-28T05:10:05;3.10;;;1.95;;
47287;SDS011;33020;53.008;13.558;2023-07-28T05:12:33;4.57;;;2.50;;
47287;SDS011;33020;53.008;13.558;2023-07-28T05:15:00;3.63;;;2.20;;
47287;SDS011;33020;53.008;13.558;2023-07-28T05:17:27;3.95;;;2.50;;
47287;SDS011;33020;53.008;13.558;2023-07-28T05:19:55;3.20;;;2.47;;
47287;SDS011;33020;53.008;13.558;2023-07-28T05:22:22;3.05;;;2.45;;
47287;SDS011;33020;53.008;13.558;2023-07-28T05:24:49;3.33;;;2.20;;
47287;SDS011;33020;53.008;13.558;2023-07-28T05:27:18;3.03;;;2.28;;
47287;SDS011;33020;53.008;13.558;2023-07-28T05:29:45;2.45;;;2.20;;
47287;SDS011;33020;53.008;13.558;2023-07-28T05:32:11;3.33;;;2.55;;
47287;SDS011;33020;53.008;13.558;2023-07-28T05:34:43;4.00;;;2.33;;
47287;SDS011;33020;53.008;13.558;2023-07-28T05:37:10;3.72;;;2.28;;
47287;SDS011;33020;53.008;13.558;2023-07-28T05:39:37;2.80;;;2.05;;
47287;SDS011;33020;53.008;13.558;2023-07-28T05:42:04;3.05;;;2.15;;
47287;SDS011;33020;53.008;13.558;2023-07-28T05:44:31;2.85;;;2.17;;
47287;SDS011;33020;53.008;13.558;2023-07-28T05:47:00;2.88;;;2.33;;
47287;SDS011;33020;53.008;13.558;2023-07-28T05:49:27;3.40;;;2.47;;
47287;SDS011;33020;53.008;13.558;2023-07-28T05:51:55;2.50;;;2.20;;
47287;SDS011;33020;53.008;13.558;2023-07-28T05:54:21;2.67;;;2.25;;
47287;SDS011;33020;53.008;13.558;2023-07-28T05:56:48;3.58;;;2.85;;
47287;SDS011;33020;53.008;13.558;2023-07-28T05:59:15;3.80;;;2.97;;
47287;SDS011;33020;53.008;13.558;2023-07-28T06:01:42;3.03;;;1.98;;
47287;SDS011;33020;53.008;13.558;2023-07-28T06:04:10;2.95;;;1.75;;
47287;SDS011;33020;53.008;13.558;2023-07-28T06:06:37;3.05;;;1.80;;
47287;SDS011;33020;53.008;13.558;2023-07-28T06:09:03;3.28;;;1.90;;
47287;SDS011;33020;53.008;13.558;2023-07-28T06:11:30;4.57;;;1.70;;
47287;SDS011;33020;53.008;13.558;2023-07-28T06:13:57;3.30;;;1.88;;
47287;SDS011;33020;53.008;13.558;2023-07-28T06:16:25;1.50;;;1.40;;
47287;SDS011;33020;53.008;13.558;2023-07-28T06:18:52;3.55;;;1.38;;
47287;SDS011;33020;53.008;13.558;2023-07-28T06:21:19;1.73;;;1.20;;
47287;SDS011;33020;53.008;13.558;2023-07-28T06:23:46;2.10;;;1.15;;
47287;SDS011;33020;53.008;13.558;2023-07-28T06:26:13;2.95;;;2.10;;
47287;SDS011;33020;53.008;13.558;2023-07-28T06:28:40;2.03;;;1.90;;
47287;SDS011;33020;53.008;13.558;2023-07-28T06:31:07;4.15;;;2.95;;
47287;SDS011;33020;53.008;13.558;2023-07-28T06:33:36;5.32;;;4.03;;
47287;SDS011;33020;53.008;13.558;2023-07-28T06:36:03;9.68;;;7.35;;
47287;SDS011;33020;53.008;13.558;2023-07-28T06:38:31;5.93;;;3.88;;
47287;SDS011;33020;53.008;13.558;2023-07-28T06:40:59;3.40;;;2.90;;
47287;SDS011;33020;53.008;13.558;2023-07-28T06:43:26;1.70;;;1.50;;
47287;SDS011;33020;53.008;13.558;2023-07-28T06:45:53;1.52;;;1.10;;
47287;SDS011;33020;53.008;13.558;2023-07-28T06:48:21;1.38;;;1.20;;
47287;SDS011;33020;53.008;13.558;2023-07-28T06:50:47;0.95;;;0.85;;
47287;SDS011;33020;53.008;13.558;2023-07-28T06:53:14;2.00;;;0.70;;
47287;SDS011;33020;53.008;13.558;2023-07-28T06:55:43;1.05;;;0.90;;
47287;SDS011;33020;53.008;13.558;2023-07-28T06:58:10;1.17;;;0.88;;
47287;SDS011;33020;53.008;13.558;2023-07-28T07:00:37;0.93;;;0.63;;
47287;SDS011;33020;53.008;13.558;2023-07-28T07:03:04;1.13;;;0.80;;
47287;SDS011;33020;53.008;13.558;2023-07-28T07:05:31;1.10;;;0.75;;
47287;SDS011;33020;53.008;13.558;2023-07-28T07:07:58;0.70;;;0.70;;
47287;SDS011;33020;53.008;13.558;2023-07-28T07:10:25;1.77;;;0.80;;
47287;SDS011;33020;53.008;13.558;2023-07-28T07:12:52;0.80;;;0.55;;
47287;SDS011;33020;53.008;13.558;2023-07-28T07:15:19;0.70;;;0.70;;
47287;SDS011;33020;53.008;13.558;2023-07-28T07:17:50;1.02;;;0.93;;
47287;SDS011;33020;53.008;13.558;2023-07-28T07:20:17;0.88;;;0.80;;
47287;SDS011;33020;53.008;13.558;2023-07-28T07:22:43;0.80;;;0.80;;
47287;SDS011;33020;53.008;13.558;2023-07-28T07:25:10;0.65;;;0.60;;
47287;SDS011;33020;53.008;13.558;2023-07-28T07:27:37;0.50;;;0.50;;
47287;SDS011;33020;53.008;13.558;2023-07-28T07:30:04;0.80;;;0.70;;
47287;SDS011;33020;53.008;13.558;2023-07-28T07:32:32;0.60;;;0.60;;
47287;SDS011;33020;53.008;13.558;2023-07-28T07:35:00;0.90;;;0.77;;
47287;SDS011;33020;53.008;13.558;2023-07-28T07:37:27;1.67;;;0.77;;
47287;SDS011;33020;53.008;13.558;2023-07-28T07:39:53;0.70;;;0.70;;
47287;SDS011;33020;53.008;13.558;2023-07-28T07:42:21;0.80;;;0.80;;
47287;SDS011;33020;53.008;13.558;2023-07-28T07:44:47;1.48;;;0.77;;
47287;SDS011;33020;53.008;13.558;2023-07-28T07:47:14;1.42;;;0.90;;
47287;SDS011;33020;53.008;13.558;2023-07-28T07:49:42;1.88;;;0.82;;
47287;SDS011;33020;53.008;13.558;2023-07-28T07:52:09;1.52;;;1.00;;
47287;SDS011;33020;53.008;13.558;2023-07-28T07:54:36;0.90;;;0.90;;
47287;SDS011;33020;53.008;13.558;2023-07-28T07:57:04;1.13;;;0.90;;
47287;SDS011;33020;53.008;13.558;2023-07-28T07:59:31;1.10;;;1.00;;
47287;SDS011;33020;53.008;13.558;2023-07-28T08:02:01;1.00;;;0.90;;
47287;SDS011;33020;53.008;13.558;2023-07-28T08:04:30;1.10;;;1.00;;
47287;SDS011;33020;53.008;13.558;2023-07-28T08:06:58;1.27;;;1.00;;
47287;SDS011;33020;53.008;13.558;2023-07-28T08:09:24;0.93;;;0.88;;
47287;SDS011;33020;53.008;13.558;2023-07-28T08:11:51;1.10;;;1.00;;
47287;SDS011;33020;53.008;13.558;2023-07-28T08:14:19;1.00;;;0.90;;
47287;SDS011;33020;53.008;13.558;2023-07-28T08:16:46;1.33;;;1.20;;
47287;SDS011;33020;53.008;13.558;2023-07-28T08:19:13;2.15;;;1.27;;
47287;SDS011;33020;53.008;13.558;2023-07-28T08:21:40;1.08;;;0.95;;
47287;SDS011;33020;53.008;13.558;2023-07-28T08:24:06;2.47;;;1.20;;
47287;SDS011;33020;53.008;13.558;2023-07-28T08:26:33;1.10;;;1.00;;
47287;SDS011;33020;53.008;13.558;2023-07-28T08:29:00;1.45;;;1.10;;
47287;SDS011;33020;53.008;13.558;2023-07-28T08:31:27;1.30;;;1.20;;
47287;SDS011;33020;53.008;13.558;2023-07-28T08:33:54;1.40;;;1.20;;
47287;SDS011;33020;53.008;13.558;2023-07-28T08:36:20;1.17;;;1.08;;
47287;SDS011;33020;53.008;13.558;2023-07-28T08:38:47;1.08;;;1.00;;
47287;SDS011;33020;53.008;13.558;2023-07-28T08:41:15;1.60;;;1.00;;
47287;SDS011;33020;53.008;13.558;2023-07-28T08:43:43;1.80;;;1.30;;
47287;SDS011;33020;53.008;13.558;2023-07-28T08:46:10;1.30;;;1.20;;
47287;SDS011;33020;53.008;13.558;2023-07-28T08:48:36;1.33;;;1.10;;
47287;SDS011;33020;53.008;13.558;2023-07-28T08:51:04;2.15;;;1.30;;
47287;SDS011;33020;53.008;13.558;2023-07-28T08:53:31;1.70;;;1.42;;
47287;SDS011;33020;53.008;13.558;2023-07-28T08:55:57;1.70;;;1.60;;
47287;SDS011;33020;53.008;13.558;2023-07-28T08:58:24;1.52;;;1.42;;
47287;SDS011;33020;53.008;13.558;2023-07-28T09:00:51;2.28;;;1.85;;
47287;SDS011;33020;53.008;13.558;2023-07-28T09:03:19;1.92;;;1.70;;
47287;SDS011;33020;53.008;13.558;2023-07-28T09:05:47;2.10;;;1.50;;
47287;SDS011;33020;53.008;13.558;2023-07-28T09:08:15;1.90;;;1.50;;
47287;SDS011;33020;53.008;13.558;2023-07-28T09:10:46;1.83;;;1.73;;
47287;SDS011;33020;53.008;13.558;2023-07-28T09:13:18;1.60;;;1.50;;
47287;SDS011;33020;53.008;13.558;2023-07-28T09:15:45;2.90;;;1.58;;
47287;SDS011;33020;53.008;13.558;2023-07-28T09:18:13;2.25;;;1.63;;
47287;SDS011;33020;53.008;13.558;2023-07-28T09:20:41;1.75;;;1.65;;
47287;SDS011;33020;53.008;13.558;2023-07-28T09:23:08;2.15;;;1.55;;
47287;SDS011;33020;53.008;13.558;2023-07-28T09:25:36;1.95;;;1.60;;
47287;SDS011;33020;53.008;13.558;2023-07-28T09:28:04;1.63;;;1.52;;
47287;SDS011;33020;53.008;13.558;2023-07-28T09:30:44;1.80;;;1.60;;
47287;SDS011;33020;53.008;13.558;2023-07-28T09:33:13;2.95;;;1.48;;
47287;SDS011;33020;53.008;13.558;2023-07-28T09:35:46;1.60;;;1.50;;
47287;SDS011;33020;53.008;13.558;2023-07-28T09:38:15;1.95;;;1.75;;
47287;SDS011;33020;53.008;13.558;2023-07-28T09:40:43;1.50;;;1.40;;
47287;SDS011;33020;53.008;13.558;2023-07-28T09:43:10;1.63;;;1.52;;
47287;SDS011;33020;53.008;13.558;2023-07-28T09:45:36;1.67;;;1.45;;
47287;SDS011;33020;53.008;13.558;2023-07-28T09:48:05;1.67;;;1.38;;
47287;SDS011;33020;53.008;13.558;2023-07-28T09:50:35;2.85;;;1.48;;
47287;SDS011;33020;53.008;13.558;2023-07-28T09:53:04;1.58;;;1.48;;
47287;SDS011;33020;53.008;13.558;2023-07-28T09:55:32;1.45;;;1.30;;
47287;SDS011;33020;53.008;13.558;2023-07-28T09:58:03;1.50;;;1.40;;
47287;SDS011;33020;53.008;13.558;2023-07-28T10:00:32;1.35;;;1.25;;
47287;SDS011;33020;53.008;13.558;2023-07-28T10:03:00;1.95;;;1.50;;
47287;SDS011;33020;53.008;13.558;2023-07-28T10:05:29;1.42;;;1.30;;
47287;SDS011;33020;53.008;13.558;2023-07-28T10:07:56;1.80;;;1.17;;
47287;SDS011;33020;53.008;13.558;2023-07-28T10:10:23;1.67;;;1.20;;
47287;SDS011;33020;53.008;13.558;2023-07-28T10:12:50;1.38;;;1.13;;
47287;SDS011;33020;53.008;13.558;2023-07-28T10:15:19;2.35;;;1.40;;
47287;SDS011;33020;53.008;13.558;2023-07-28T10:17:47;1.20;;;1.10;;
47287;SDS011;33020;53.008;13.558;2023-07-28T10:23:11;1.35;;;1.23;;
47287;SDS011;33020;53.008;13.558;2023-07-28T10:25:39;1.42;;;1.20;;
47287;SDS011;33020;53.008;13.558;2023-07-28T10:30:59;1.10;;;1.00;;
47287;SDS011;33020;53.008;13.558;2023-07-28T10:33:32;2.25;;;1.35;;
47287;SDS011;33020;53.008;13.558;2023-07-28T10:38:59;1.15;;;1.00;;
47287;SDS011;33020;53.008;13.558;2023-07-28T10:41:26;0.90;;;0.90;;
47287;SDS011;33020;53.008;13.558;2023-07-28T10:43:53;1.15;;;1.00;;
47287;SDS011;33020;53.008;13.558;2023-07-28T10:46:20;1.30;;;1.20;;
47287;SDS011;33020;53.008;13.558;2023-07-28T10:48:48;1.58;;;1.00;;
47287;SDS011;33020;53.008;13.558;2023-07-28T10:51:23;1.30;;;1.20;;
47287;SDS011;33020;53.008;13.558;2023-07-28T10:54:00;1.23;;;1.13;;
47287;SDS011;33020;53.008;13.558;2023-07-28T10:56:29;1.02;;;0.93;;
47287;SDS011;33020;53.008;13.558;2023-07-28T10:58:56;1.58;;;1.20;;
47287;SDS011;33020;53.008;13.558;2023-07-28T11:01:33;1.20;;;1.10;;
47287;SDS011;33020;53.008;13.558;2023-07-28T11:06:44;0.90;;;0.90;;
47287;SDS011;33020;53.008;13.558;2023-07-28T11:09:12;1.13;;;1.00;;
47287;SDS011;33020;53.008;13.558;2023-07-28T11:11:42;1.30;;;1.10;;
47287;SDS011;33020;53.008;13.558;2023-07-28T11:14:14;1.30;;;1.20;;
47287;SDS011;33020;53.008;13.558;2023-07-28T11:16:41;1.33;;;1.10;;
47287;SDS011;33020;53.008;13.558;2023-07-28T11:19:09;1.40;;;1.30;;
47287;SDS011;33020;53.008;13.558;2023-07-28T11:21:42;1.10;;;1.00;;
47287;SDS011;33020;53.008;13.558;2023-07-28T11:24:09;1.58;;;1.17;;
47287;SDS011;33020;53.008;13.558;2023-07-28T11:26:38;1.88;;;1.27;;
47287;SDS011;33020;53.008;13.558;2023-07-28T11:29:05;1.20;;;1.10;;
47287;SDS011;33020;53.008;13.558;2023-07-28T11:31:33;1.00;;;1.00;;
47287;SDS011;33020;53.008;13.558;2023-07-28T11:34:00;1.02;;;1.02;;
47287;SDS011;33020;53.008;13.558;2023-07-28T11:36:27;2.03;;;0.90;;
47287;SDS011;33020;53.008;13.558;2023-07-28T11:38:55;1.23;;;1.13;;
47287;SDS011;33020;53.008;13.558;2023-07-28T11:41:24;1.42;;;1.30;;
47287;SDS011;33020;53.008;13.558;2023-07-28T11:43:52;1.52;;;1.20;;
47287;SDS011;33020;53.008;13.558;2023-07-28T11:46:35;1.50;;;1.10;;
47287;SDS011;33020;53.008;13.558;2023-07-28T11:49:08;1.23;;;1.10;;
47287;SDS011;33020;53.008;13.558;2023-07-28T11:51:43;1.73;;;0.98;;
47287;SDS011;33020;53.008;13.558;2023-07-28T11:54:11;1.48;;;1.10;;
47287;SDS011;33020;53.008;13.558;2023-07-28T11:56:44;0.95;;;0.95;;
47287;SDS011;33020;53.008;13.558;2023-07-28T11:59:14;2.25;;;1.30;;
47287;SDS011;33020;53.008;13.558;2023-07-28T12:04:27;1.10;;;1.00;;
47287;SDS011;33020;53.008;13.558;2023-07-28T12:09:36;1.00;;;1.00;;
47287;SDS011;33020;53.008;13.558;2023-07-28T12:12:16;2.50;;;1.20;;
47287;SDS011;33020;53.008;13.558;2023-07-28T12:14:46;1.38;;;0.93;;
47287;SDS011;33020;53.008;13.558;2023-07-28T12:17:34;1.10;;;1.00;;
47287;SDS011;33020;53.008;13.558;2023-07-28T12:20:08;1.17;;;1.10;;
47287;SDS011;33020;53.008;13.558;2023-07-28T12:22:41;0.90;;;0.90;;
47287;SDS011;33020;53.008;13.558;2023-07-28T12:25:08;0.85;;;0.80;;
47287;SDS011;33020;53.008;13.558;2023-07-28T12:27:36;1.35;;;1.00;;
47287;SDS011;33020;53.008;13.558;2023-07-28T12:30:03;0.80;;;0.80;;
47287;SDS011;33020;53.008;13.558;2023-07-28T12:32:30;1.08;;;0.88;;
47287;SDS011;33020;53.008;13.558;2023-07-28T12:35:00;1.25;;;1.13;;
47287;SDS011;33020;53.008;13.558;2023-07-28T12:37:40;0.90;;;0.90;;
47287;SDS011;33020;53.008;13.558;2023-07-28T12:40:09;0.95;;;0.95;;
47287;SDS011;33020;53.008;13.558;2023-07-28T12:42:57;1.00;;;0.90;;
47287;SDS011;33020;53.008;13.558;2023-07-28T12:45:27;1.00;;;1.00;;
47287;SDS011;33020;53.008;13.558;2023-07-28T12:48:14;0.90;;;0.80;;
47287;SDS011;33020;53.008;13.558;2023-07-28T12:50:44;0.82;;;0.82;;
47287;SDS011;33020;53.008;13.558;2023-07-28T12:53:11;1.08;;;1.00;;
47287;SDS011;33020;53.008;13.558;2023-07-28T12:55:43;0.82;;;0.82;;
47287;SDS011;33020;53.008;13.558;2023-07-28T12:58:12;0.82;;;0.82;;
47287;SDS011;33020;53.008;13.558;2023-07-28T13:00:43;0.90;;;0.90;;
47287;SDS011;33020;53.008;13.558;2023-07-28T13:03:13;0.95;;;0.95;;
47287;SDS011;33020;53.008;13.558;2023-07-28T13:05:40;1.40;;;0.88;;
47287;SDS011;33020;53.008;13.558;2023-07-28T13:08:10;0.80;;;0.80;;
47287;SDS011;33020;53.008;13.558;2023-07-28T13:10:38;0.90;;;0.90;;
47287;SDS011;33020;53.008;13.558;2023-07-28T13:13:08;1.02;;;1.00;;
47287;SDS011;33020;53.008;13.558;2023-07-28T13:15:38;0.90;;;0.90;;
47287;SDS011;33020;53.008;13.558;2023-07-28T13:18:04;1.05;;;0.95;;
47287;SDS011;33020;53.008;13.558;2023-07-28T13:20:31;1.15;;;0.90;;
47287;SDS011;33020;53.008;13.558;2023-07-28T13:22:58;0.80;;;0.80;;
47287;SDS011;33020;53.008;13.558;2023-07-28T13:25:25;0.75;;;0.75;;
47287;SDS011;33020;53.008;13.558;2023-07-28T13:27:51;1.08;;;0.80;;
47287;SDS011;33020;53.008;13.558;2023-07-28T13:30:19;0.90;;;0.90;;
47287;SDS011;33020;53.008;13.558;2023-07-28T13:32:45;1.20;;;1.10;;
47287;SDS011;33020;53.008;13.558;2023-07-28T13:35:12;1.13;;;0.80;;
47287;SDS011;33020;53.008;13.558;2023-07-28T13:37:41;1.60;;;1.00;;
47287;SDS011;33020;53.008;13.558;2023-07-28T13:40:07;1.83;;;0.98;;
47287;SDS011;33020;53.008;13.558;2023-07-28T13:42:38;0.90;;;0.90;;
47287;SDS011;33020;53.008;13.558;2023-07-28T13:45:05;0.88;;;0.88;;
47287;SDS011;33020;53.008;13.558;2023-07-28T13:47:32;0.90;;;0.90;;
47287;SDS011;33020;53.008;13.558;2023-07-28T13:49:59;1.05;;;0.80;;
47287;SDS011;33020;53.008;13.558;2023-07-28T13:52:26;0.88;;;0.88;;
47287;SDS011;33020;53.008;13.558;2023-07-28T13:54:53;1.25;;;0.90;;
47287;SDS011;33020;53.008;13.558;2023-07-28T13:57:23;0.80;;;0.80;;
47287;SDS011;33020;53.008;13.558;2023-07-28T13:59:50;0.90;;;0.90;;
47287;SDS011;33020;53.008;13.558;2023-07-28T14:02:17;0.90;;;0.90;;
47287;SDS011;33020;53.008;13.558;2023-07-28T14:04:44;0.80;;;0.80;;
47287;SDS011;33020;53.008;13.558;2023-07-28T14:07:11;1.15;;;1.00;;
47287;SDS011;33020;53.008;13.558;2023-07-28T14:09:38;0.90;;;0.90;;
47287;SDS011;33020;53.008;13.558;2023-07-28T14:12:05;1.30;;;1.10;;
47287;SDS011;33020;53.008;13.558;2023-07-28T14:14:32;1.33;;;1.23;;
47287;SDS011;33020;53.008;13.558;2023-07-28T14:16:59;1.10;;;1.00;;
47287;SDS011;33020;53.008;13.558;2023-07-28T14:19:26;1.10;;;1.00;;
47287;SDS011;33020;53.008;13.558;2023-07-28T14:21:53;1.15;;;1.05;;
47287;SDS011;33020;53.008;13.558;2023-07-28T14:24:20;0.90;;;0.90;;
47287;SDS011;33020;53.008;13.558;2023-07-28T14:26:49;1.75;;;1.10;;
47287;SDS011;33020;53.008;13.558;2023-07-28T14:29:16;1.20;;;1.10;;
47287;SDS011;33020;53.008;13.558;2023-07-28T14:31:43;1.00;;;1.00;;
47287;SDS011;33020;53.008;13.558;2023-07-28T14:34:10;1.00;;;1.00;;
47287;SDS011;33020;53.008;13.558;2023-07-28T14:36:37;1.33;;;1.10;;
47287;SDS011;33020;53.008;13.558;2023-07-28T14:39:04;0.95;;;0.90;;
47287;SDS011;33020;53.008;13.558;2023-07-28T14:41:32;1.20;;;1.10;;
47287;SDS011;33020;53.008;13.558;2023-07-28T14:43:59;0.93;;;0.93;;
47287;SDS011;33020;53.008;13.558;2023-07-28T14:46:26;1.70;;;1.00;;
47287;SDS011;33020;53.008;13.558;2023-07-28T14:48:53;1.55;;;1.10;;
47287;SDS011;33020;53.008;13.558;2023-07-28T14:51:20;0.90;;;0.90;;
47287;SDS011;33020;53.008;13.558;2023-07-28T14:53:47;1.00;;;1.00;;
47287;SDS011;33020;53.008;13.558;2023-07-28T14:56:15;1.15;;;1.00;;
47287;SDS011;33020;53.008;13.558;2023-07-28T14:58:42;1.88;;;1.63;;
47287;SDS011;33020;53.008;13.558;2023-07-28T15:01:12;1.20;;;1.10;;
47287;SDS011;33020;53.008;13.558;2023-07-28T15:03:39;1.35;;;1.00;;
47287;SDS011;33020;53.008;13.558;2023-07-28T15:06:07;1.35;;;1.25;;